GAMB

Mopti Airport

Mali
METAR GAMB 250300Z 18016KT 8000 -TSRA SCT030 FEW040CB 26/19 Q1011
Observed Flight Rules
May-25 @ 03:00 UTC (2 hours ago) Marginal Visual Flight Rules
Wind Visibility Clouds Conditions
180° at 16 knots 7,998 meters
  • Scattered at 3,000' AGL
  • Few at 4,000' AGL
  • Light Thunderstorm
  • Light Rain
Temperatures Readings
Current 26°C / 79°F
Dewpoint 19°C / 66°F
Humidity 65%
Altimeter 29.85" Hg
Pressure 1011 hPa
Elevation 272
METAR GAMB 250300Z 18016KT 8000 -TSRA SCT030 FEW040CB 26/19 Q1011
Observed Flight Rules
May-25 @ 03:00 UTC
(2 hours ago)
MVFR
Wind Visibility
180° at 16 knots 7,998 meters
Clouds
  • Scattered at 3,000' AGL
  • Few at 4,000' AGL
Conditions
  • Light Thunderstorm
  • Light Rain
Temperature Dewpoint
26°C / 79°F 19°C / 66°F
Humidity Altimeter Pressure
65% 29.85" Hg 1011 hPa